Time;durP1;ratioP1;P1;durP2;ratioP2;P2;SDS_P1;SDS_P2;PMS_P1;PMS_P2;Temp;Humidity;BMP_temperature;BMP_pressure;BME280_temperature;BME280_humidity;BME280_pressure;Samples;Min_cycle;Max_cycle;Signal;HPM_P1;HPM_P2
2022/04/22 00:01:21;;;;;;;12.07;7.18;;;10.10;99.90;;;;;;5060784;28;20037;-76
2022/04/22 00:03:47;;;;;;;13.82;8.32;;;10.00;99.90;;;;;;5055340;28;20040;-76
2022/04/22 00:06:13;;;;;;;11.50;7.80;;;10.00;99.90;;;;;;5048683;28;20037;-75
2022/04/22 00:08:39;;;;;;;10.73;6.82;;;10.00;99.90;;;;;;5050735;28;20064;-76
2022/04/22 00:13:49;;;;;;;13.68;7.50;;;9.90;99.90;;;;;;5061530;28;20139;-74
2022/04/22 00:16:17;;;;;;;14.63;6.78;;;9.90;99.90;;;;;;5043939;28;21586;-74
2022/04/22 00:18:44;;;;;;;11.20;7.00;;;9.80;99.90;;;;;;5050569;28;20064;-75
2022/04/22 00:21:09;;;;;;;17.75;7.75;;;9.90;99.90;;;;;;5051798;28;20041;-75
2022/04/22 00:23:35;;;;;;;12.00;7.60;;;9.80;99.90;;;;;;5054115;28;20043;-75
2022/04/22 00:26:01;;;;;;;15.45;7.50;;;9.70;99.90;;;;;;5053204;28;20172;-75
2022/04/22 00:28:27;;;;;;;14.27;7.82;;;9.70;99.90;;;;;;5049413;28;20040;-75
2022/04/22 00:30:52;;;;;;;12.43;6.85;;;9.70;99.90;;;;;;5051947;28;20048;-74
2022/04/22 00:33:18;;;;;;;17.88;8.75;;;9.70;99.90;;;;;;5055116;28;20519;-75
2022/04/22 00:35:44;;;;;;;15.18;8.52;;;9.60;99.90;;;;;;5050113;28;20041;-75
2022/04/22 00:38:10;;;;;;;14.45;6.72;;;9.60;99.90;;;;;;5054427;28;20052;-75
2022/04/22 00:40:37;;;;;;;20.90;8.38;;;9.40;99.90;;;;;;5060415;28;20048;-74
2022/04/22 00:43:21;;;;;;;11.40;7.80;;;9.40;99.90;;;;;;5060700;28;20048;-74
2022/04/22 00:45:47;;;;;;;13.63;8.57;;;9.40;99.90;;;;;;5048845;28;20539;-75
2022/04/22 00:48:14;;;;;;;15.75;8.57;;;9.30;99.90;;;;;;5049822;28;20044;-74
2022/04/22 00:50:40;;;;;;;15.93;6.75;;;9.40;99.90;;;;;;5050043;28;21071;-75
2022/04/22 00:53:06;;;;;;;20.10;8.63;;;9.30;99.90;;;;;;5051866;28;20403;-74
2022/04/22 00:55:33;;;;;;;12.48;9.02;;;9.30;99.90;;;;;;5047651;28;20045;-74
2022/04/22 00:57:59;;;;;;;15.98;8.38;;;9.30;99.90;;;;;;5058771;28;20040;-74
2022/04/22 01:00:26;;;;;;;11.93;7.90;;;9.30;99.90;;;;;;5056753;28;20097;-74
2022/04/22 01:02:52;;;;;;;19.95;8.07;;;9.40;99.90;;;;;;5047073;28;20045;-74
2022/04/22 01:10:47;;;;;;;16.52;8.40;;;9.30;99.90;;;;;;5051976;28;20509;-75
2022/04/22 01:13:12;;;;;;;20.33;9.60;;;9.40;99.90;;;;;;5046948;28;20056;-75
2022/04/22 01:15:38;;;;;;;20.33;10.02;;;9.30;99.90;;;;;;5055687;28;20491;-76
2022/04/22 01:18:05;;;;;;;14.82;7.80;;;9.30;99.90;;;;;;5039332;28;20048;-74
2022/04/22 01:20:30;;;;;;;18.98;8.88;;;9.20;99.90;;;;;;5049298;28;20394;-75
2022/04/22 01:22:56;;;;;;;16.20;7.13;;;9.30;99.90;;;;;;5046904;28;20045;-75
2022/04/22 01:25:22;;;;;;;15.75;8.15;;;9.30;99.90;;;;;;5058267;28;20102;-74
2022/04/22 01:27:50;;;;;;;17.40;9.65;;;9.20;99.90;;;;;;5050079;28;20100;-74
2022/04/22 01:30:23;;;;;;;13.93;8.80;;;9.20;99.90;;;;;;5049682;28;20499;-75
2022/04/22 01:32:56;;;;;;;13.75;7.85;;;9.20;99.90;;;;;;5052806;28;20150;-74
2022/04/22 01:35:23;;;;;;;15.80;8.88;;;9.20;99.90;;;;;;5048434;28;20446;-75
2022/04/22 01:37:49;;;;;;;15.57;8.43;;;9.10;99.90;;;;;;5048455;28;20098;-75
2022/04/22 01:40:15;;;;;;;16.30;9.27;;;8.90;99.90;;;;;;5056453;28;20058;-75
2022/04/22 01:42:42;;;;;;;13.85;8.90;;;8.70;99.90;;;;;;5062160;28;20053;-75
2022/04/22 01:45:09;;;;;;;21.20;10.13;;;8.70;99.90;;;;;;5049059;28;20060;-75
2022/04/22 01:47:35;;;;;;;10.82;8.30;;;8.60;99.90;;;;;;5057100;28;20068;-75
2022/04/22 01:50:02;;;;;;;19.63;8.95;;;8.50;99.90;;;;;;5049529;28;20037;-75
2022/04/22 01:52:27;;;;;;;13.70;8.57;;;8.40;99.90;;;;;;5048001;28;20043;-75
2022/04/22 01:54:55;;;;;;;17.70;9.40;;;8.40;99.90;;;;;;5049065;28;20037;-75
2022/04/22 01:57:23;;;;;;;19.25;9.77;;;8.30;99.90;;;;;;5050054;28;20052;-74
2022/04/22 01:59:50;;;;;;;16.42;8.85;;;8.30;99.90;;;;;;5045005;28;20041;-74
2022/04/22 02:02:16;;;;;;;12.75;8.88;;;8.30;99.90;;;;;;5064636;28;20390;-74
2022/04/22 02:04:42;;;;;;;15.05;8.45;;;8.20;99.90;;;;;;5053580;28;20052;-74
2022/04/22 02:07:08;;;;;;;12.82;9.10;;;8.10;99.90;;;;;;5046622;28;20037;-74
2022/04/22 02:09:34;;;;;;;13.77;9.05;;;8.10;99.90;;;;;;5050394;28;20037;-74
2022/04/22 02:12:00;;;;;;;11.73;8.18;;;8.10;99.90;;;;;;5056395;28;20044;-74
2022/04/22 02:14:26;;;;;;;12.20;8.85;;;8.00;99.90;;;;;;5055966;28;20577;-76
2022/04/22 02:16:53;;;;;;;13.15;8.68;;;8.00;99.90;;;;;;5053095;28;20487;-75
2022/04/22 02:19:19;;;;;;;12.60;9.13;;;7.90;99.90;;;;;;5053542;28;20431;-75
2022/04/22 02:21:45;;;;;;;13.73;7.70;;;7.80;99.90;;;;;;5056345;28;20043;-74
2022/04/22 02:24:11;;;;;;;12.65;8.15;;;7.80;99.90;;;;;;5054596;28;20056;-75
2022/04/22 02:29:21;;;;;;;11.35;7.72;;;7.80;99.90;;;;;;5064057;28;20049;-75
2022/04/22 02:31:47;;;;;;;12.32;8.50;;;7.80;99.90;;;;;;5066369;28;20544;-75
2022/04/22 02:34:13;;;;;;;14.30;9.45;;;7.80;99.90;;;;;;5064008;28;20045;-75
2022/04/22 02:36:39;;;;;;;13.82;7.40;;;7.80;99.90;;;;;;5059199;28;20120;-77
2022/04/22 02:39:05;;;;;;;20.90;8.15;;;7.90;99.90;;;;;;5054307;28;20056;-75
2022/04/22 02:46:59;;;;;;;18.40;9.20;;;7.90;99.90;;;;;;5061484;28;20414;-74
2022/04/22 02:49:25;;;;;;;15.07;7.57;;;7.80;99.90;;;;;;5052154;28;20053;-75
2022/04/22 02:51:51;;;;;;;13.98;8.45;;;7.80;99.90;;;;;;5049935;28;20073;-75
2022/04/22 02:54:17;;;;;;;11.02;7.38;;;7.70;99.90;;;;;;5051574;28;20447;-75
2022/04/22 02:56:42;;;;;;;12.52;8.63;;;7.70;99.90;;;;;;5064581;28;20040;-75
2022/04/22 02:59:08;;;;;;;12.20;8.25;;;7.70;99.90;;;;;;5065190;28;20036;-74
2022/04/22 03:01:34;;;;;;;11.73;7.53;;;7.70;99.90;;;;;;5057190;28;20037;-75
2022/04/22 03:04:00;;;;;;;11.18;8.02;;;7.60;99.90;;;;;;5048767;28;20066;-74
2022/04/22 03:06:26;;;;;;;16.42;9.52;;;7.60;99.90;;;;;;5051731;28;20028;-75
2022/04/22 03:08:52;;;;;;;9.85;8.00;;;7.50;99.90;;;;;;5051269;28;20075;-75
2022/04/22 03:11:20;;;;;;;15.68;8.30;;;7.50;99.90;;;;;;5057136;28;20044;-75
2022/04/22 03:13:46;;;;;;;13.10;9.45;;;7.50;99.90;;;;;;5064427;28;20053;-75
2022/04/22 03:16:11;;;;;;;14.10;7.40;;;7.40;99.90;;;;;;5049206;28;20044;-75
2022/04/22 03:18:37;;;;;;;11.77;7.18;;;7.40;99.90;;;;;;5051095;28;20045;-75
2022/04/22 03:21:02;;;;;;;11.02;8.05;;;7.40;99.90;;;;;;5051505;28;20068;-74
2022/04/22 03:23:28;;;;;;;9.77;7.70;;;7.30;99.90;;;;;;5054416;28;20127;-75
2022/04/22 03:25:54;;;;;;;13.70;7.45;;;7.30;99.90;;;;;;5062190;28;20121;-74
2022/04/22 03:28:21;;;;;;;16.55;7.68;;;7.30;99.90;;;;;;5058947;28;20041;-77
2022/04/22 03:30:47;;;;;;;10.88;7.53;;;7.30;99.90;;;;;;5065449;28;20052;-73
2022/04/22 03:33:13;;;;;;;12.48;9.10;;;7.30;99.90;;;;;;5068363;28;20059;-75
2022/04/22 03:35:39;;;;;;;13.45;8.40;;;7.30;99.90;;;;;;5053835;28;20041;-76
2022/04/22 03:38:05;;;;;;;12.48;8.10;;;7.20;99.90;;;;;;5064208;28;20063;-74
2022/04/22 03:40:30;;;;;;;13.32;6.65;;;7.20;99.90;;;;;;5056161;28;20040;-74
2022/04/22 03:42:56;;;;;;;12.60;7.28;;;7.20;99.90;;;;;;5058351;28;20123;-75
2022/04/22 03:45:22;;;;;;;14.25;7.45;;;7.20;99.90;;;;;;5052588;28;20041;-75
2022/04/22 03:47:47;;;;;;;13.23;7.70;;;7.30;99.90;;;;;;5056096;28;20394;-75
2022/04/22 03:50:13;;;;;;;18.38;8.02;;;7.20;99.90;;;;;;5049273;28;20040;-75
2022/04/22 03:52:39;;;;;;;12.88;7.43;;;7.30;99.90;;;;;;5049819;28;20048;-76
2022/04/22 03:55:06;;;;;;;10.27;6.45;;;7.20;99.90;;;;;;5048767;28;20475;-74
2022/04/22 04:00:16;;;;;;;7.90;5.50;;;7.20;99.90;;;;;;5047042;28;20057;-76
2022/04/22 04:02:42;;;;;;;9.93;6.40;;;7.20;99.90;;;;;;5056707;28;20509;-75
2022/04/22 04:05:08;;;;;;;11.48;6.47;;;7.30;99.90;;;;;;5047549;28;20082;-74
2022/04/22 04:07:33;;;;;;;15.70;7.75;;;7.20;99.90;;;;;;5057241;28;20068;-74
2022/04/22 04:18:11;;;;;;;11.68;6.97;;;7.00;99.90;;;;;;5051388;28;20037;-74
2022/04/22 04:23:21;;;;;;;11.55;6.85;;;6.80;99.90;;;;;;5065194;28;20049;-75
2022/04/22 04:25:47;;;;;;;9.45;7.57;;;6.80;99.90;;;;;;5054007;28;20033;-75
2022/04/22 04:28:15;;;;;;;12.48;7.43;;;6.80;99.90;;;;;;5062268;28;20090;-75
2022/04/22 04:30:42;;;;;;;12.65;7.30;;;6.80;99.90;;;;;;5058845;28;20048;-75
2022/04/22 04:33:08;;;;;;;11.63;6.60;;;6.70;99.90;;;;;;5057189;28;20047;-75
2022/04/22 04:35:35;;;;;;;11.30;6.72;;;6.70;99.90;;;;;;5060450;28;20044;-75
2022/04/22 04:38:04;;;;;;;12.32;7.38;;;6.70;99.90;;;;;;5050989;28;20063;-75
2022/04/22 04:40:30;;;;;;;13.40;8.40;;;6.70;99.90;;;;;;5051117;28;20053;-76
2022/04/22 04:42:55;;;;;;;10.57;7.07;;;6.80;99.90;;;;;;5057664;28;20665;-76
2022/04/22 04:45:21;;;;;;;10.50;6.75;;;6.80;99.90;;;;;;5056011;28;20505;-76
2022/04/22 04:47:47;;;;;;;15.98;8.00;;;6.80;99.90;;;;;;5049387;28;20041;-75
2022/04/22 04:50:13;;;;;;;14.20;6.68;;;7.00;99.90;;;;;;5051870;28;20067;-76
2022/04/22 04:52:41;;;;;;;12.40;6.13;;;7.00;99.90;;;;;;5051382;28;20160;-76
2022/04/22 04:55:13;;;;;;;12.68;6.65;;;7.20;99.90;;;;;;5049124;28;20079;-76
2022/04/22 04:57:39;;;;;;;14.40;5.60;;;7.30;99.90;;;;;;5055893;28;20048;-76
2022/04/22 05:00:06;;;;;;;11.10;6.35;;;7.20;99.90;;;;;;5047185;28;20044;-75
2022/04/22 05:02:32;;;;;;;13.90;7.07;;;7.40;99.90;;;;;;5048633;28;20066;-74
2022/04/22 05:04:58;;;;;;;16.00;7.38;;;7.30;99.90;;;;;;5056097;28;20044;-75
2022/04/22 05:07:24;;;;;;;10.75;5.80;;;7.40;99.90;;;;;;5051923;28;20045;-75
2022/04/22 05:09:49;;;;;;;11.25;6.93;;;7.50;99.90;;;;;;5053739;28;20445;-74
2022/04/22 05:12:15;;;;;;;11.48;6.80;;;7.40;99.90;;;;;;5050823;28;20037;-75
2022/04/22 05:14:40;;;;;;;15.40;7.28;;;7.30;99.90;;;;;;5047600;28;20055;-75
2022/04/22 05:17:06;;;;;;;10.52;6.13;;;7.30;99.90;;;;;;5050316;28;20104;-74
2022/04/22 05:19:33;;;;;;;8.95;5.90;;;7.30;99.90;;;;;;5049597;28;20045;-75
2022/04/22 05:21:58;;;;;;;8.15;6.93;;;7.20;99.90;;;;;;5056082;28;20097;-77
2022/04/22 05:24:24;;;;;;;8.40;6.50;;;7.30;99.90;;;;;;5062091;28;20048;-74
2022/04/22 05:26:50;;;;;;;9.73;6.65;;;7.30;99.90;;;;;;5047541;28;20091;-75
2022/04/22 05:34:44;;;;;;;10.70;6.90;;;7.60;99.90;;;;;;5058169;28;20518;-79
2022/04/22 05:37:10;;;;;;;10.13;6.70;;;7.70;99.90;;;;;;5057343;28;20045;-78
2022/04/22 05:39:35;;;;;;;15.23;7.07;;;7.80;99.90;;;;;;5051885;28;20052;-78
2022/04/22 05:42:01;;;;;;;8.82;5.45;;;8.20;99.90;;;;;;5048074;28;20072;-78
2022/04/22 05:44:28;;;;;;;8.32;6.00;;;8.60;99.90;;;;;;5048863;28;20380;-78
2022/04/22 05:46:54;;;;;;;10.73;6.18;;;8.50;99.90;;;;;;5047723;28;20492;-78
2022/04/22 05:49:19;;;;;;;9.45;5.88;;;8.30;99.90;;;;;;5048311;28;20047;-78
2022/04/22 05:51:45;;;;;;;7.70;5.38;;;8.00;99.90;;;;;;5048527;28;20048;-78
2022/04/22 05:54:11;;;;;;;13.57;7.03;;;8.10;99.90;;;;;;5031394;28;20037;-78
2022/04/22 05:56:36;;;;;;;11.57;6.40;;;8.30;99.90;;;;;;5050211;28;20079;-78
2022/04/22 05:59:03;;;;;;;9.70;5.45;;;8.10;99.90;;;;;;5051275;28;20048;-78
2022/04/22 06:01:29;;;;;;;19.15;6.15;;;8.10;99.90;;;;;;5050801;28;20044;-74
2022/04/22 06:03:54;;;;;;;15.07;5.55;;;8.10;99.90;;;;;;5055471;28;20379;-79
2022/04/22 06:06:20;;;;;;;15.00;5.30;;;8.20;99.90;;;;;;5060912;28;20410;-76
2022/04/22 06:11:29;;;;;;;10.80;5.78;;;8.50;99.90;;;;;;5064788;28;20116;-78
2022/04/22 06:13:55;;;;;;;8.15;4.85;;;8.60;99.90;;;;;;5060643;28;20160;-79
2022/04/22 06:16:21;;;;;;;8.75;4.70;;;8.70;99.90;;;;;;5056307;28;20549;-78
2022/04/22 06:18:47;;;;;;;10.02;5.95;;;9.00;99.90;;;;;;5048327;28;20048;-77
2022/04/22 06:21:13;;;;;;;6.65;3.75;;;9.00;99.90;;;;;;5056111;28;20407;-78
2022/04/22 06:23:38;;;;;;;8.75;5.15;;;9.30;99.90;;;;;;5060825;28;20491;-77
2022/04/22 06:26:04;;;;;;;6.65;3.88;;;9.10;99.90;;;;;;5059247;28;20033;-79
2022/04/22 06:28:30;;;;;;;5.03;3.50;;;9.00;99.90;;;;;;5052052;28;20571;-79
2022/04/22 06:30:56;;;;;;;7.13;3.40;;;9.10;99.90;;;;;;5052774;28;20041;-78
2022/04/22 06:33:22;;;;;;;8.30;4.20;;;9.20;99.90;;;;;;5069314;28;20046;-77
2022/04/22 06:35:48;;;;;;;8.45;4.05;;;9.10;99.90;;;;;;5057085;28;20106;-79
2022/04/22 06:38:16;;;;;;;7.35;4.13;;;9.10;99.90;;;;;;5051919;28;20045;-79
2022/04/22 06:46:12;;;;;;;6.43;3.30;;;9.40;99.90;;;;;;5067292;28;20048;-79
2022/04/22 06:48:38;;;;;;;5.32;3.83;;;9.40;99.90;;;;;;5066894;28;20043;-80
2022/04/22 06:51:07;;;;;;;8.15;3.60;;;9.60;99.90;;;;;;5051367;28;20087;-79
2022/04/22 06:53:34;;;;;;;7.20;3.78;;;10.30;99.90;;;;;;5050780;28;20077;-80
2022/04/22 06:56:01;;;;;;;4.32;3.30;;;9.90;99.90;;;;;;5053606;28;20044;-79
2022/04/22 06:58:30;;;;;;;8.43;2.80;;;9.90;99.90;;;;;;5051698;28;20048;-80
2022/04/22 07:00:56;;;;;;;4.45;3.17;;;10.30;99.90;;;;;;5052438;28;20044;-82
2022/04/22 07:03:22;;;;;;;5.47;2.58;;;11.00;99.90;;;;;;5051340;28;20475;-79
2022/04/22 07:05:49;;;;;;;4.03;3.20;;;11.50;99.90;;;;;;5060546;28;20033;-77
2022/04/22 07:08:17;;;;;;;5.30;2.70;;;11.50;99.90;;;;;;5052857;28;20523;-77
2022/04/22 07:10:47;;;;;;;8.52;3.88;;;12.10;99.90;;;;;;5050269;28;20425;-77
2022/04/22 07:13:16;;;;;;;4.93;2.92;;;12.20;99.90;;;;;;5055318;28;20511;-76
2022/04/22 07:15:44;;;;;;;4.22;3.10;;;12.20;99.90;;;;;;5056673;28;20049;-76
2022/04/22 07:18:10;;;;;;;6.68;2.58;;;11.80;99.90;;;;;;5057980;28;20558;-77
2022/04/22 07:20:37;;;;;;;3.97;1.90;;;11.00;99.90;;;;;;5050892;28;20036;-78
2022/04/22 07:23:03;;;;;;;3.38;2.33;;;10.60;99.90;;;;;;5051087;28;20049;-78
2022/04/22 07:25:29;;;;;;;5.97;2.13;;;10.80;99.90;;;;;;5050306;28;20064;-77
2022/04/22 07:27:55;;;;;;;6.13;2.65;;;10.80;99.90;;;;;;5062509;28;20044;-76
2022/04/22 07:30:22;;;;;;;3.65;1.90;;;10.70;99.90;;;;;;5052967;28;20086;-77
2022/04/22 07:32:49;;;;;;;3.97;2.35;;;10.60;99.90;;;;;;5056010;28;20082;-77
2022/04/22 07:35:20;;;;;;;5.25;2.35;;;10.90;99.90;;;;;;5048479;28;20082;-80
2022/04/22 07:37:47;;;;;;;5.88;2.00;;;10.90;99.90;;;;;;5064911;28;20041;-76
2022/04/22 07:40:15;;;;;;;8.30;2.97;;;10.70;99.90;;;;;;5067127;28;20048;-76
2022/04/22 07:46:46;;;;;;;3.67;2.90;;;11.00;99.90;;;;;;5064022;28;20500;-75
2022/04/22 07:48:13;;;;;;;8.35;3.30;;;11.00;99.90;;;;;;5051766;28;20068;-76
2022/04/22 07:50:38;;;;;;;7.30;2.88;;;11.10;99.90;;;;;;5050253;28;20076;-75
2022/04/22 07:53:04;;;;;;;5.72;2.33;;;11.10;99.90;;;;;;5053557;28;20495;-76
2022/04/22 07:55:30;;;;;;;3.97;2.05;;;11.20;99.90;;;;;;5046408;28;20503;-77
2022/04/22 07:57:57;;;;;;;4.15;2.78;;;11.10;99.90;;;;;;5049869;28;20049;-77
2022/04/22 08:00:22;;;;;;;5.20;2.30;;;11.30;99.90;;;;;;5048907;28;20053;-77
2022/04/22 08:02:49;;;;;;;3.78;2.13;;;11.20;99.90;;;;;;5049239;28;20033;-77
2022/04/22 08:05:15;;;;;;;5.35;2.85;;;11.30;99.90;;;;;;5047767;28;20045;-80
2022/04/22 08:07:40;;;;;;;4.18;2.05;;;11.40;99.90;;;;;;5062483;28;20552;-78
2022/04/22 08:10:06;;;;;;;4.90;1.98;;;11.40;99.90;;;;;;5050506;28;20036;-79
2022/04/22 08:12:33;;;;;;;3.28;2.42;;;11.40;99.90;;;;;;5049916;28;20038;-79
2022/04/22 08:15:01;;;;;;;5.93;2.63;;;11.50;99.90;;;;;;5059506;28;20060;-79
2022/04/22 08:17:27;;;;;;;8.70;3.38;;;11.40;99.90;;;;;;5049204;28;20075;-79
2022/04/22 08:19:52;;;;;;;4.75;2.30;;;11.70;99.90;;;;;;5048992;28;20122;-78
2022/04/22 08:22:18;;;;;;;6.30;3.05;;;11.60;99.90;;;;;;5046887;28;20055;-77
2022/04/22 08:24:44;;;;;;;5.57;2.50;;;11.70;99.90;;;;;;5075757;28;20044;-78
2022/04/22 08:27:10;;;;;;;3.70;2.38;;;11.90;99.90;;;;;;5048447;28;20082;-78
2022/04/22 08:29:37;;;;;;;6.22;2.67;;;12.00;99.90;;;;;;5048444;28;20574;-77
2022/04/22 08:32:04;;;;;;;5.20;2.03;;;12.20;99.90;;;;;;5065362;28;20049;-77
2022/04/22 08:34:29;;;;;;;4.50;2.38;;;12.00;99.90;;;;;;5067659;28;20091;-77
2022/04/22 08:36:55;;;;;;;5.72;2.15;;;12.00;99.90;;;;;;5067644;28;20044;-77
2022/04/22 08:39:20;;;;;;;4.80;2.92;;;12.20;99.90;;;;;;5068110;28;20049;-78
2022/04/22 08:41:48;;;;;;;13.93;3.70;;;12.40;99.90;;;;;;5068080;28;20378;-78
2022/04/22 08:44:14;;;;;;;7.65;2.25;;;12.30;99.90;;;;;;5068127;28;20101;-76
2022/04/22 08:52:11;;;;;;;5.47;2.42;;;12.30;99.90;;;;;;5049082;28;20087;-78
2022/04/22 08:54:42;;;;;;;5.15;2.88;;;12.50;99.90;;;;;;5048952;28;20488;-77
2022/04/22 08:57:07;;;;;;;3.70;2.70;;;12.50;99.90;;;;;;5048963;28;20041;-78
2022/04/22 08:59:33;;;;;;;5.72;2.63;;;12.60;99.90;;;;;;5065216;28;20131;-78
2022/04/22 09:01:58;;;;;;;3.80;2.13;;;12.60;99.90;;;;;;5048688;28;20131;-79
2022/04/22 09:04:26;;;;;;;6.00;2.13;;;12.60;99.90;;;;;;5048660;28;20033;-78
2022/04/22 09:06:53;;;;;;;3.90;2.28;;;12.90;99.90;;;;;;5055280;28;20403;-78
2022/04/22 09:09:19;;;;;;;10.60;2.72;;;13.10;99.90;;;;;;5048498;28;20044;-79
2022/04/22 09:11:45;;;;;;;6.22;2.88;;;13.00;99.90;;;;;;5049031;28;20041;-79
2022/04/22 09:14:15;;;;;;;8.13;2.13;;;12.90;99.90;;;;;;5049776;28;20053;-78
2022/04/22 09:16:41;;;;;;;4.85;1.92;;;13.30;99.90;;;;;;5046956;28;20041;-80
2022/04/22 09:19:07;;;;;;;3.65;1.80;;;13.10;99.90;;;;;;5051327;28;20045;-78
2022/04/22 09:21:33;;;;;;;3.28;1.92;;;13.10;99.90;;;;;;5053167;28;20037;-79
2022/04/22 09:24:13;;;;;;;7.95;3.05;;;13.10;99.90;;;;;;5047910;28;20057;-79
2022/04/22 09:26:39;;;;;;;2.85;2.17;;;13.30;99.90;;;;;;5030812;28;20056;-78
2022/04/22 09:29:06;;;;;;;6.15;3.17;;;13.70;99.90;;;;;;5049000;28;20391;-78
2022/04/22 09:31:49;;;;;;;7.93;2.15;;;13.60;99.90;;;;;;5052265;28;20052;-77
2022/04/22 09:34:31;;;;;;;3.92;1.88;;;13.60;99.90;;;;;;5066249;28;20040;-79
2022/04/22 09:43:01;;;;;;;5.90;2.50;;;13.80;99.90;;;;;;5052044;28;20220;-77
2022/04/22 09:45:38;;;;;;;5.85;2.45;;;14.00;99.90;;;;;;5050566;28;20518;-77
2022/04/22 09:48:17;;;;;;;5.65;2.60;;;14.00;99.90;;;;;;5050802;28;20040;-78
2022/04/22 09:50:52;;;;;;;4.93;2.10;;;13.80;99.90;;;;;;5049771;28;20099;-78
2022/04/22 09:53:35;;;;;;;4.15;2.65;;;14.10;99.90;;;;;;5050811;28;20123;-77
2022/04/22 09:56:06;;;;;;;2.92;2.28;;;14.00;99.90;;;;;;5049209;28;20495;-78
2022/04/22 09:58:32;;;;;;;4.47;1.80;;;13.60;99.90;;;;;;5059504;28;20083;-78
2022/04/22 10:01:00;;;;;;;6.07;2.40;;;14.00;99.90;;;;;;5053624;28;20077;-78
2022/04/22 10:03:37;;;;;;;6.20;3.13;;;13.90;99.90;;;;;;5050770;28;20067;-78
2022/04/22 10:06:06;;;;;;;6.18;2.20;;;14.00;99.90;;;;;;5050200;28;20520;-78
2022/04/22 10:08:36;;;;;;;8.27;2.60;;;14.00;99.90;;;;;;5049497;28;20395;-78
2022/04/22 10:11:06;;;;;;;;;;;14.10;99.90;;;;;;5033506;28;20048;-77
2022/04/22 10:13:44;;;;;;;5.30;2.28;;;14.20;99.90;;;;;;5049164;28;20325;-77
2022/04/22 10:16:13;;;;;;;7.03;2.58;;;14.40;99.90;;;;;;5049854;28;20036;-77
2022/04/22 10:18:40;;;;;;;9.60;3.08;;;14.10;99.90;;;;;;5053847;28;20068;-76
2022/04/22 10:21:06;;;;;;;3.63;1.83;;;14.10;99.90;;;;;;5050908;28;20094;-78
2022/04/22 10:23:32;;;;;;;8.68;2.05;;;14.40;99.90;;;;;;5054201;28;20044;-77
2022/04/22 10:25:59;;;;;;;6.22;3.05;;;14.40;99.90;;;;;;5070898;28;20044;-78
2022/04/22 10:28:28;;;;;;;7.18;2.65;;;14.50;99.90;;;;;;5068894;28;20037;-78
2022/04/22 10:31:00;;;;;;;3.33;2.47;;;14.70;99.90;;;;;;5034998;28;20071;-78
2022/04/22 10:33:46;;;;;;;7.18;2.20;;;14.60;99.90;;;;;;5070503;28;20119;-78
2022/04/22 10:36:14;;;;;;;4.80;2.30;;;14.80;99.90;;;;;;5070439;28;20052;-78
2022/04/22 10:38:44;;;;;;;4.47;2.30;;;14.80;99.90;;;;;;5068989;28;20466;-77
2022/04/22 10:41:17;;;;;;;5.47;3.50;;;14.80;99.90;;;;;;5051926;28;20082;-77
2022/04/22 10:43:45;;;;;;;7.40;2.42;;;15.00;99.90;;;;;;5070040;28;20040;-78
2022/04/22 10:49:12;;;;;;;4.53;2.55;;;14.60;99.90;;;;;;5050468;28;20447;-77
2022/04/22 10:52:02;;;;;;;6.07;2.20;;;14.70;99.90;;;;;;5049578;28;20075;-78
2022/04/22 10:54:53;;;;;;;3.70;2.75;;;14.80;99.90;;;;;;5034910;28;20384;-78
2022/04/22 10:57:23;;;;;;;4.95;2.88;;;14.80;99.90;;;;;;5050959;28;20044;-76
2022/04/22 11:00:26;;;;;;;4.88;2.08;;;14.90;99.90;;;;;;5061567;28;20132;-78
2022/04/22 11:03:00;;;;;;;5.80;2.58;;;14.90;99.90;;;;;;5033464;28;20052;-78
2022/04/22 11:05:31;;;;;;;7.47;2.78;;;14.90;99.90;;;;;;5050230;28;20391;-77
2022/04/22 11:07:57;;;;;;;12.82;4.00;;;15.00;99.90;;;;;;5059659;28;20044;-79
2022/04/22 11:10:26;;;;;;;6.05;2.53;;;15.10;99.90;;;;;;5049690;28;20041;-78
2022/04/22 11:12:56;;;;;;;7.28;2.55;;;15.40;99.90;;;;;;5048870;28;20052;-78
2022/04/22 11:15:46;;;;;;;7.75;2.88;;;15.20;99.90;;;;;;5048646;28;20044;-76
2022/04/22 11:18:16;;;;;;;3.55;2.75;;;15.40;99.90;;;;;;5064175;28;20048;-78
2022/04/22 11:20:44;;;;;;;7.80;2.75;;;15.70;99.90;;;;;;5048977;28;20059;-78
2022/04/22 11:23:13;;;;;;;6.32;2.60;;;15.20;99.90;;;;;;5048049;28;20491;-79
2022/04/22 11:25:41;;;;;;;4.78;3.17;;;15.10;99.90;;;;;;5049203;28;20053;-78
2022/04/22 11:28:08;;;;;;;3.20;2.83;;;15.10;99.90;;;;;;5050307;28;20059;-76
2022/04/22 11:30:34;;;;;;;7.75;3.00;;;15.20;99.90;;;;;;5048502;28;20041;-78
2022/04/22 11:33:12;;;;;;;4.65;2.97;;;15.10;99.90;;;;;;5047757;28;20365;-78
2022/04/22 11:35:39;;;;;;;12.23;3.95;;;15.20;99.90;;;;;;5048388;28;20541;-78
2022/04/22 11:38:05;;;;;;;6.10;3.78;;;15.30;99.90;;;;;;5054069;28;20051;-78
2022/04/22 11:40:36;;;;;;;5.82;3.67;;;15.30;99.90;;;;;;5059047;28;20400;-78
2022/04/22 11:43:11;;;;;;;7.65;2.60;;;15.60;99.90;;;;;;5054216;28;20037;-78
2022/04/22 11:45:43;;;;;;;9.75;3.28;;;15.80;99.90;;;;;;5047495;28;20045;-78
2022/04/22 11:48:10;;;;;;;8.73;4.07;;;15.90;99.90;;;;;;5047799;28;20090;-77
2022/04/22 11:50:43;;;;;;;8.18;3.92;;;15.60;99.90;;;;;;5049002;28;20583;-78
2022/04/22 11:53:24;;;;;;;7.88;3.90;;;15.60;99.90;;;;;;5047192;28;20044;-78
2022/04/22 11:55:50;;;;;;;7.00;3.03;;;15.70;99.90;;;;;;5051083;28;20036;-78
2022/04/22 11:58:20;;;;;;;7.05;3.50;;;16.00;99.90;;;;;;5048584;28;20037;-78
2022/04/22 12:06:19;;;;;;;8.18;3.72;;;15.80;99.90;;;;;;5034192;28;20045;-78
2022/04/22 12:09:02;;;;;;;6.53;3.25;;;15.70;99.90;;;;;;5050444;28;20059;-78
2022/04/22 12:11:29;;;;;;;8.48;4.80;;;16.00;99.90;;;;;;5049038;28;20112;-78
2022/04/22 12:13:55;;;;;;;5.18;3.85;;;16.10;99.90;;;;;;5047031;28;20565;-78
2022/04/22 12:16:26;;;;;;;4.47;3.67;;;16.00;99.90;;;;;;5064191;28;20045;-79
2022/04/22 12:18:56;;;;;;;6.72;3.45;;;15.90;99.90;;;;;;5051772;28;20399;-79
2022/04/22 12:21:22;;;;;;;;;;;16.00;99.90;;;;;;5033504;28;20103;-79
2022/04/22 12:23:57;;;;;;;6.60;3.90;;;15.90;99.90;;;;;;5050833;28;19921;-78
2022/04/22 12:26:37;;;;;;;8.25;3.45;;;16.20;99.90;;;;;;5107130;27;20181;-79
2022/04/22 12:29:09;;;;;;;6.07;4.00;;;16.30;99.90;;;;;;5096248;28;20068;-79
2022/04/22 12:31:39;;;;;;;5.90;2.95;;;16.20;99.90;;;;;;5086487;28;20036;-78
2022/04/22 12:34:09;;;;;;;6.70;3.33;;;16.30;99.90;;;;;;5085604;28;20050;-79
2022/04/22 12:36:39;;;;;;;6.70;3.70;;;16.30;99.90;;;;;;5086351;28;20504;-79
2022/04/22 12:39:06;;;;;;;4.03;2.80;;;16.40;99.90;;;;;;5086635;28;20037;-79
2022/04/22 12:41:44;;;;;;;15.50;3.90;;;16.40;99.90;;;;;;5086003;28;20044;-78
2022/04/22 12:44:14;;;;;;;9.27;3.80;;;16.60;99.90;;;;;;5083259;28;20083;-78
2022/04/22 12:52:23;;;;;;;5.25;3.65;;;16.40;99.90;;;;;;5084154;28;20549;-79
2022/04/22 12:54:49;;;;;;;5.22;3.30;;;16.50;99.90;;;;;;5085838;28;20044;-78
2022/04/22 12:57:22;;;;;;;10.80;4.03;;;16.60;99.90;;;;;;5085246;28;20047;-79
2022/04/22 12:59:56;;;;;;;7.90;3.55;;;16.40;99.90;;;;;;5083090;28;20044;-79
2022/04/22 13:02:35;;;;;;;7.55;3.67;;;16.70;99.90;;;;;;5083983;28;20136;-79
2022/04/22 13:05:03;;;;;;;8.20;4.28;;;16.60;99.90;;;;;;5081098;28;20036;-78
2022/04/22 13:07:42;;;;;;;5.93;3.22;;;16.90;99.90;;;;;;5085181;28;20135;-76
2022/04/22 13:10:10;;;;;;;7.15;3.65;;;16.80;99.90;;;;;;5085206;28;20040;-76
2022/04/22 13:12:39;;;;;;;7.22;3.60;;;16.60;99.90;;;;;;5084168;28;20059;-78
2022/04/22 13:15:07;;;;;;;6.75;3.20;;;16.70;99.90;;;;;;5083709;28;20386;-78
2022/04/22 13:17:39;;;;;;;9.38;3.80;;;16.70;99.90;;;;;;5082423;28;20051;-80
2022/04/22 13:20:06;;;;;;;4.47;3.20;;;17.00;99.90;;;;;;5084674;28;20028;-77
2022/04/22 13:22:32;;;;;;;6.70;4.43;;;16.70;99.90;;;;;;5083618;28;20175;-78
2022/04/22 13:24:59;;;;;;;7.68;4.13;;;16.90;99.90;;;;;;5081897;28;20107;-78
2022/04/22 13:27:24;;;;;;;9.50;4.40;;;16.90;99.90;;;;;;5083976;28;20067;-78
2022/04/22 13:29:50;;;;;;;5.32;3.78;;;17.10;99.90;;;;;;5054714;28;20045;-78
2022/04/22 13:32:15;;;;;;;6.75;3.83;;;17.10;99.90;;;;;;5078547;28;20074;-77
2022/04/22 13:34:41;;;;;;;7.03;4.13;;;17.10;99.90;;;;;;5082332;28;20102;-77
2022/04/22 13:37:07;;;;;;;7.93;4.13;;;17.10;99.90;;;;;;5079160;28;20064;-83
2022/04/22 13:39:33;;;;;;;10.13;3.97;;;17.10;99.90;;;;;;5069696;28;20041;-79
2022/04/22 13:41:59;;;;;;;6.43;3.85;;;17.20;99.90;;;;;;5070757;28;20049;-79
2022/04/22 13:52:37;;;;;;;10.38;4.57;;;17.40;99.90;;;;;;5069889;28;20001;-76
2022/04/22 13:55:03;;;;;;;7.45;4.57;;;16.90;99.90;;;;;;5069786;28;20080;-79
2022/04/22 13:57:28;;;;;;;6.68;4.63;;;17.00;99.90;;;;;;5070471;28;20044;-78
2022/04/22 13:59:54;;;;;;;10.75;5.10;;;17.00;99.90;;;;;;5068299;28;20063;-78
2022/04/22 14:02:20;;;;;;;6.18;4.82;;;17.20;99.90;;;;;;5067501;28;20287;-78
2022/04/22 14:04:46;;;;;;;6.20;5.32;;;17.40;99.90;;;;;;5062535;28;20056;-79
2022/04/22 14:07:12;;;;;;;9.15;5.13;;;17.10;99.90;;;;;;5059595;28;20036;-79
2022/04/22 14:09:38;;;;;;;5.22;4.07;;;17.10;99.90;;;;;;5068594;28;20051;-79
2022/04/22 14:12:04;;;;;;;8.80;5.80;;;17.30;99.90;;;;;;5069997;28;20044;-79